sensor_id;sensor_type;location;lat;lon;timestamp;pressure;altitude;pressure_sealevel;temperature;humidity
53011;BME280;42803;55.762;38.084;2023-05-24T00:00:26;99575.69;;;14.86;100.00
53011;BME280;42803;55.762;38.084;2023-05-24T00:02:55;99567.88;;;14.87;100.00
53011;BME280;42803;55.762;38.084;2023-05-24T00:05:25;99568.63;;;14.85;100.00
53011;BME280;42803;55.762;38.084;2023-05-24T00:07:59;99565.88;;;14.83;100.00
53011;BME280;42803;55.762;38.084;2023-05-24T00:10:28;99566.63;;;14.81;100.00
53011;BME280;42803;55.762;38.084;2023-05-24T00:12:57;99564.50;;;14.75;100.00
53011;BME280;42803;55.762;38.084;2023-05-24T00:15:26;99556.44;;;14.72;100.00
53011;BME280;42803;55.762;38.084;2023-05-24T00:17:55;99556.28;;;14.69;100.00
53011;BME280;42803;55.762;38.084;2023-05-24T00:20:24;99555.25;;;14.67;100.00
53011;BME280;42803;55.762;38.084;2023-05-24T00:22:53;99561.22;;;14.65;100.00
53011;BME280;42803;55.762;38.084;2023-05-24T00:25:24;99553.88;;;14.59;100.00
53011;BME280;42803;55.762;38.084;2023-05-24T00:27:53;99558.34;;;14.47;100.00
53011;BME280;42803;55.762;38.084;2023-05-24T00:30:22;99560.63;;;14.27;100.00
53011;BME280;42803;55.762;38.084;2023-05-24T00:32:51;99557.09;;;14.13;100.00
53011;BME280;42803;55.762;38.084;2023-05-24T00:35:20;99548.75;;;14.06;100.00
53011;BME280;42803;55.762;38.084;2023-05-24T00:37:49;99553.91;;;14.04;100.00
53011;BME280;42803;55.762;38.084;2023-05-24T00:40:18;99557.59;;;14.08;100.00
53011;BME280;42803;55.762;38.084;2023-05-24T00:42:51;99554.19;;;14.09;100.00
53011;BME280;42803;55.762;38.084;2023-05-24T00:45:20;99558.91;;;14.14;100.00
53011;BME280;42803;55.762;38.084;2023-05-24T00:47:49;99541.75;;;14.20;100.00
53011;BME280;42803;55.762;38.084;2023-05-24T00:50:18;99548.91;;;14.22;100.00
53011;BME280;42803;55.762;38.084;2023-05-24T00:52:48;99549.91;;;14.24;100.00
53011;BME280;42803;55.762;38.084;2023-05-24T00:55:19;99541.22;;;14.25;100.00
53011;BME280;42803;55.762;38.084;2023-05-24T00:57:49;99542.94;;;14.25;100.00
53011;BME280;42803;55.762;38.084;2023-05-24T01:00:20;99541.22;;;14.25;100.00
53011;BME280;42803;55.762;38.084;2023-05-24T01:02:50;99536.16;;;14.28;100.00
53011;BME280;42803;55.762;38.084;2023-05-24T01:05:19;99537.16;;;14.30;100.00
53011;BME280;42803;55.762;38.084;2023-05-24T01:07:59;99534.53;;;14.30;100.00
53011;BME280;42803;55.762;38.084;2023-05-24T01:10:39;99527.47;;;14.29;100.00
53011;BME280;42803;55.762;38.084;2023-05-24T01:13:18;99537.00;;;14.27;100.00
53011;BME280;42803;55.762;38.084;2023-05-24T01:15:56;99535.06;;;14.25;100.00
53011;BME280;42803;55.762;38.084;2023-05-24T01:18:31;99530.78;;;14.12;100.00
53011;BME280;42803;55.762;38.084;2023-05-24T01:21:14;99531.50;;;13.96;100.00
53011;BME280;42803;55.762;38.084;2023-05-24T01:23:46;99528.69;;;13.80;100.00
53011;BME280;42803;55.762;38.084;2023-05-24T01:26:23;99529.22;;;13.61;100.00
53011;BME280;42803;55.762;38.084;2023-05-24T01:28:59;99534.28;;;13.45;100.00
53011;BME280;42803;55.762;38.084;2023-05-24T01:31:28;99535.28;;;13.33;100.00
53011;BME280;42803;55.762;38.084;2023-05-24T01:33:58;99536.88;;;13.31;100.00
53011;BME280;42803;55.762;38.084;2023-05-24T01:36:27;99530.03;;;13.33;100.00
53011;BME280;42803;55.762;38.084;2023-05-24T01:38:56;99532.44;;;13.30;100.00
53011;BME280;42803;55.762;38.084;2023-05-24T01:41:35;99530.09;;;13.22;100.00
53011;BME280;42803;55.762;38.084;2023-05-24T01:44:14;99526.94;;;13.14;100.00
53011;BME280;42803;55.762;38.084;2023-05-24T01:46:56;99527.84;;;13.14;100.00
53011;BME280;42803;55.762;38.084;2023-05-24T01:49:34;99527.84;;;13.14;100.00
53011;BME280;42803;55.762;38.084;2023-05-24T01:52:11;99528.97;;;13.18;100.00
53011;BME280;42803;55.762;38.084;2023-05-24T01:54:43;99529.19;;;13.21;100.00
53011;BME280;42803;55.762;38.084;2023-05-24T01:57:13;99525.19;;;13.26;100.00
53011;BME280;42803;55.762;38.084;2023-05-24T01:59:45;99523.88;;;13.33;100.00
53011;BME280;42803;55.762;38.084;2023-05-24T02:02:15;99517.22;;;13.38;100.00
53011;BME280;42803;55.762;38.084;2023-05-24T02:04:44;99516.72;;;13.44;100.00
53011;BME280;42803;55.762;38.084;2023-05-24T02:07:13;99512.78;;;13.50;100.00
53011;BME280;42803;55.762;38.084;2023-05-24T02:09:44;99512.50;;;13.59;100.00
53011;BME280;42803;55.762;38.084;2023-05-24T02:12:13;99507.63;;;13.65;100.00
53011;BME280;42803;55.762;38.084;2023-05-24T02:14:42;99509.63;;;13.69;100.00
53011;BME280;42803;55.762;38.084;2023-05-24T02:17:13;99512.25;;;13.82;100.00
53011;BME280;42803;55.762;38.084;2023-05-24T02:19:44;99507.69;;;13.93;100.00
53011;BME280;42803;55.762;38.084;2023-05-24T02:22:14;99512.81;;;14.05;100.00
53011;BME280;42803;55.762;38.084;2023-05-24T02:24:43;99510.97;;;14.17;100.00
53011;BME280;42803;55.762;38.084;2023-05-24T02:27:12;99514.28;;;14.28;100.00
53011;BME280;42803;55.762;38.084;2023-05-24T02:29:41;99507.97;;;14.39;100.00
53011;BME280;42803;55.762;38.084;2023-05-24T02:32:10;99518.00;;;14.59;100.00
53011;BME280;42803;55.762;38.084;2023-05-24T02:34:41;99508.69;;;14.79;100.00
53011;BME280;42803;55.762;38.084;2023-05-24T02:37:10;99507.63;;;14.91;100.00
53011;BME280;42803;55.762;38.084;2023-05-24T02:39:41;99504.28;;;14.93;100.00
53011;BME280;42803;55.762;38.084;2023-05-24T02:42:10;99499.03;;;14.93;100.00
53011;BME280;42803;55.762;38.084;2023-05-24T02:44:39;99501.53;;;14.92;100.00
53011;BME280;42803;55.762;38.084;2023-05-24T02:47:09;99503.56;;;14.96;100.00
53011;BME280;42803;55.762;38.084;2023-05-24T02:49:38;99487.13;;;15.29;100.00
53011;BME280;42803;55.762;38.084;2023-05-24T02:52:08;99485.22;;;15.88;100.00
53011;BME280;42803;55.762;38.084;2023-05-24T02:54:38;99486.03;;;17.01;100.00
53011;BME280;42803;55.762;38.084;2023-05-24T02:57:07;99479.25;;;18.13;100.00
53011;BME280;42803;55.762;38.084;2023-05-24T02:59:40;99487.59;;;17.85;100.00
53011;BME280;42803;55.762;38.084;2023-05-24T03:02:11;99483.44;;;17.72;100.00
53011;BME280;42803;55.762;38.084;2023-05-24T03:04:41;99480.28;;;17.97;98.14
53011;BME280;42803;55.762;38.084;2023-05-24T03:07:13;99472.31;;;17.60;98.37
53011;BME280;42803;55.762;38.084;2023-05-24T03:09:42;99471.69;;;17.30;100.00
53011;BME280;42803;55.762;38.084;2023-05-24T03:12:11;99473.47;;;17.13;100.00
53011;BME280;42803;55.762;38.084;2023-05-24T03:14:40;99463.56;;;17.25;100.00
53011;BME280;42803;55.762;38.084;2023-05-24T03:17:09;99471.47;;;17.25;100.00
53011;BME280;42803;55.762;38.084;2023-05-24T03:19:38;99469.88;;;17.47;100.00
53011;BME280;42803;55.762;38.084;2023-05-24T03:22:08;99480.53;;;18.41;95.38
53011;BME280;42803;55.762;38.084;2023-05-24T03:24:39;99468.63;;;18.70;90.07
53011;BME280;42803;55.762;38.084;2023-05-24T03:27:08;99475.25;;;18.21;91.49
53011;BME280;42803;55.762;38.084;2023-05-24T03:29:37;99478.03;;;18.44;92.74
53011;BME280;42803;55.762;38.084;2023-05-24T03:32:06;99471.41;;;18.73;90.36
53011;BME280;42803;55.762;38.084;2023-05-24T03:34:36;99472.78;;;18.65;89.40
53011;BME280;42803;55.762;38.084;2023-05-24T03:39:54;99472.81;;;17.53;92.32
53011;BME280;42803;55.762;38.084;2023-05-24T03:42:37;99472.75;;;17.34;96.91
53011;BME280;42803;55.762;38.084;2023-05-24T03:45:08;99474.69;;;17.02;97.10
53011;BME280;42803;55.762;38.084;2023-05-24T03:47:38;99459.25;;;16.75;99.74
53011;BME280;42803;55.762;38.084;2023-05-24T03:50:08;99463.94;;;16.65;100.00
53011;BME280;42803;55.762;38.084;2023-05-24T03:52:37;99462.03;;;16.62;100.00
53011;BME280;42803;55.762;38.084;2023-05-24T03:55:08;99465.00;;;16.68;100.00
53011;BME280;42803;55.762;38.084;2023-05-24T03:57:38;99452.31;;;16.77;100.00
53011;BME280;42803;55.762;38.084;2023-05-24T04:00:09;99448.94;;;17.14;100.00
53011;BME280;42803;55.762;38.084;2023-05-24T04:02:45;99457.66;;;17.67;95.08
53011;BME280;42803;55.762;38.084;2023-05-24T04:05:14;99447.75;;;18.57;90.09
53011;BME280;42803;55.762;38.084;2023-05-24T04:07:43;99449.00;;;18.45;87.51
53011;BME280;42803;55.762;38.084;2023-05-24T04:10:31;99444.38;;;18.40;88.33
53011;BME280;42803;55.762;38.084;2023-05-24T04:13:11;99447.72;;;18.36;88.40
53011;BME280;42803;55.762;38.084;2023-05-24T04:15:59;99448.66;;;17.99;87.90
53011;BME280;42803;55.762;38.084;2023-05-24T04:18:28;99447.25;;;17.88;89.70
53011;BME280;42803;55.762;38.084;2023-05-24T04:21:16;99449.50;;;17.62;91.53
53011;BME280;42803;55.762;38.084;2023-05-24T04:23:45;99454.78;;;17.62;92.58
53011;BME280;42803;55.762;38.084;2023-05-24T04:26:35;99455.09;;;17.68;92.25
53011;BME280;42803;55.762;38.084;2023-05-24T04:29:04;99452.16;;;17.80;92.19
53011;BME280;42803;55.762;38.084;2023-05-24T04:31:34;99453.03;;;17.98;89.54
53011;BME280;42803;55.762;38.084;2023-05-24T04:34:04;99450.47;;;18.39;88.63
53011;BME280;42803;55.762;38.084;2023-05-24T04:36:50;99451.38;;;18.59;87.31
53011;BME280;42803;55.762;38.084;2023-05-24T04:39:55;99453.13;;;18.39;87.43
53011;BME280;42803;55.762;38.084;2023-05-24T04:45:13;99451.31;;;18.18;88.54
53011;BME280;42803;55.762;38.084;2023-05-24T04:48:00;99452.53;;;18.65;87.17
53011;BME280;42803;55.762;38.084;2023-05-24T04:50:29;99448.41;;;18.70;86.59
53011;BME280;42803;55.762;38.084;2023-05-24T04:52:58;99456.69;;;18.59;85.39
53011;BME280;42803;55.762;38.084;2023-05-24T04:55:46;99449.09;;;18.66;86.87
53011;BME280;42803;55.762;38.084;2023-05-24T04:58:18;99454.09;;;18.80;87.29
53011;BME280;42803;55.762;38.084;2023-05-24T05:01:06;99457.56;;;18.59;86.19
53011;BME280;42803;55.762;38.084;2023-05-24T05:03:35;99461.66;;;18.91;85.51
53011;BME280;42803;55.762;38.084;2023-05-24T05:06:05;99453.47;;;19.06;84.36
53011;BME280;42803;55.762;38.084;2023-05-24T05:09:10;99459.75;;;19.08;84.33
53011;BME280;42803;55.762;38.084;2023-05-24T05:11:41;99468.78;;;19.13;83.58
53011;BME280;42803;55.762;38.084;2023-05-24T05:14:30;99474.50;;;19.45;83.21
53011;BME280;42803;55.762;38.084;2023-05-24T05:17:17;99475.56;;;19.69;82.68
53011;BME280;42803;55.762;38.084;2023-05-24T05:19:46;99476.38;;;19.68;81.45
53011;BME280;42803;55.762;38.084;2023-05-24T05:22:16;99474.22;;;20.03;81.00
53011;BME280;42803;55.762;38.084;2023-05-24T05:24:45;99472.66;;;20.31;79.01
53011;BME280;42803;55.762;38.084;2023-05-24T05:27:14;99484.41;;;20.15;79.51
53011;BME280;42803;55.762;38.084;2023-05-24T05:30:05;99490.81;;;20.21;79.49
53011;BME280;42803;55.762;38.084;2023-05-24T05:32:35;99484.88;;;20.27;79.32
53011;BME280;42803;55.762;38.084;2023-05-24T05:37:52;99481.34;;;20.99;76.99
53011;BME280;42803;55.762;38.084;2023-05-24T05:40:22;99475.00;;;21.21;75.89
53011;BME280;42803;55.762;38.084;2023-05-24T05:43:10;99483.84;;;21.20;74.10
53011;BME280;42803;55.762;38.084;2023-05-24T05:45:40;99479.38;;;20.93;74.51
53011;BME280;42803;55.762;38.084;2023-05-24T05:48:10;99480.63;;;20.79;75.12
53011;BME280;42803;55.762;38.084;2023-05-24T05:50:39;99481.88;;;20.64;75.93
53011;BME280;42803;55.762;38.084;2023-05-24T05:53:08;99485.03;;;20.54;76.68
53011;BME280;42803;55.762;38.084;2023-05-24T05:55:37;99483.97;;;20.49;77.71
53011;BME280;42803;55.762;38.084;2023-05-24T05:58:06;99486.78;;;20.31;77.31
53011;BME280;42803;55.762;38.084;2023-05-24T06:00:55;99483.13;;;20.28;78.15
53011;BME280;42803;55.762;38.084;2023-05-24T06:03:42;99481.38;;;20.51;78.25
53011;BME280;42803;55.762;38.084;2023-05-24T06:06:11;99481.78;;;20.61;77.51
53011;BME280;42803;55.762;38.084;2023-05-24T06:08:41;99471.03;;;20.82;76.55
53011;BME280;42803;55.762;38.084;2023-05-24T06:11:10;99468.56;;;20.63;75.66
53011;BME280;42803;55.762;38.084;2023-05-24T06:13:40;99474.38;;;21.02;75.57
53011;BME280;42803;55.762;38.084;2023-05-24T06:16:10;99461.81;;;21.22;74.79
53011;BME280;42803;55.762;38.084;2023-05-24T06:21:33;99454.94;;;21.54;74.02
53011;BME280;42803;55.762;38.084;2023-05-24T06:24:22;99448.34;;;21.70;73.06
53011;BME280;42803;55.762;38.084;2023-05-24T06:26:51;99448.81;;;21.84;72.55
53011;BME280;42803;55.762;38.084;2023-05-24T06:29:20;99447.69;;;21.77;73.03
53011;BME280;42803;55.762;38.084;2023-05-24T06:31:53;99453.38;;;21.89;73.07
53011;BME280;42803;55.762;38.084;2023-05-24T06:34:22;99452.75;;;22.25;72.01
53011;BME280;42803;55.762;38.084;2023-05-24T06:36:51;99444.88;;;22.60;69.97
53011;BME280;42803;55.762;38.084;2023-05-24T06:39:21;99442.59;;;22.74;68.49
53011;BME280;42803;55.762;38.084;2023-05-24T06:42:10;99447.66;;;22.95;68.22
53011;BME280;42803;55.762;38.084;2023-05-24T06:44:44;99445.06;;;22.98;67.72
53011;BME280;42803;55.762;38.084;2023-05-24T06:47:15;99448.44;;;22.92;67.25
53011;BME280;42803;55.762;38.084;2023-05-24T06:49:45;99452.22;;;23.00;66.89
53011;BME280;42803;55.762;38.084;2023-05-24T06:52:15;99441.09;;;23.51;66.23
53011;BME280;42803;55.762;38.084;2023-05-24T06:54:44;99438.22;;;24.18;63.11
53011;BME280;42803;55.762;38.084;2023-05-24T06:57:14;99445.56;;;24.72;61.34
53011;BME280;42803;55.762;38.084;2023-05-24T06:59:43;99441.09;;;24.69;61.06
53011;BME280;42803;55.762;38.084;2023-05-24T07:02:12;99432.66;;;24.95;60.51
53011;BME280;42803;55.762;38.084;2023-05-24T07:04:43;99428.13;;;24.89;59.97
53011;BME280;42803;55.762;38.084;2023-05-24T07:07:12;99423.38;;;24.74;59.84
53011;BME280;42803;55.762;38.084;2023-05-24T07:09:41;99420.75;;;24.76;60.48
53011;BME280;42803;55.762;38.084;2023-05-24T07:12:11;99426.34;;;24.44;62.03
53011;BME280;42803;55.762;38.084;2023-05-24T07:17:46;99430.56;;;23.57;64.23
53011;BME280;42803;55.762;38.084;2023-05-24T07:20:17;99435.91;;;23.57;64.42
53011;BME280;42803;55.762;38.084;2023-05-24T07:22:46;99428.00;;;23.98;63.92
53011;BME280;42803;55.762;38.084;2023-05-24T07:25:16;99425.78;;;24.18;62.88
53011;BME280;42803;55.762;38.084;2023-05-24T07:27:45;99427.84;;;23.92;62.32
53011;BME280;42803;55.762;38.084;2023-05-24T07:30:14;99431.28;;;23.85;62.14
53011;BME280;42803;55.762;38.084;2023-05-24T07:32:58;99426.69;;;23.79;61.99
53011;BME280;42803;55.762;38.084;2023-05-24T07:35:30;99431.66;;;24.03;62.64
53011;BME280;42803;55.762;38.084;2023-05-24T07:37:59;99427.47;;;23.74;61.87
53011;BME280;42803;55.762;38.084;2023-05-24T07:40:29;99426.38;;;24.46;61.34
53011;BME280;42803;55.762;38.084;2023-05-24T07:42:59;99429.56;;;24.72;60.25
53011;BME280;42803;55.762;38.084;2023-05-24T07:45:30;99425.06;;;25.15;59.19
53011;BME280;42803;55.762;38.084;2023-05-24T07:47:59;99432.66;;;25.43;57.85
53011;BME280;42803;55.762;38.084;2023-05-24T07:50:30;99424.88;;;25.57;57.91
53011;BME280;42803;55.762;38.084;2023-05-24T07:52:59;99428.50;;;25.64;58.13
53011;BME280;42803;55.762;38.084;2023-05-24T07:55:40;99436.25;;;25.45;57.52
53011;BME280;42803;55.762;38.084;2023-05-24T07:58:13;99437.16;;;25.46;57.70
53011;BME280;42803;55.762;38.084;2023-05-24T08:00:42;99436.16;;;25.41;57.22
53011;BME280;42803;55.762;38.084;2023-05-24T08:03:12;99443.34;;;25.43;57.22
53011;BME280;42803;55.762;38.084;2023-05-24T08:05:43;99443.47;;;25.49;57.72
53011;BME280;42803;55.762;38.084;2023-05-24T08:08:13;99441.16;;;25.74;56.03
53011;BME280;42803;55.762;38.084;2023-05-24T08:10:42;99439.84;;;26.04;55.26
53011;BME280;42803;55.762;38.084;2023-05-24T08:13:11;99429.22;;;26.08;55.93
53011;BME280;42803;55.762;38.084;2023-05-24T08:15:41;99431.28;;;26.31;55.54
53011;BME280;42803;55.762;38.084;2023-05-24T08:18:10;99432.28;;;26.37;55.02
53011;BME280;42803;55.762;38.084;2023-05-24T08:20:39;99444.72;;;26.35;55.45
53011;BME280;42803;55.762;38.084;2023-05-24T08:23:10;99435.78;;;26.35;55.23
53011;BME280;42803;55.762;38.084;2023-05-24T08:25:39;99435.50;;;26.13;54.27
53011;BME280;42803;55.762;38.084;2023-05-24T08:28:09;99439.00;;;26.08;54.74
53011;BME280;42803;55.762;38.084;2023-05-24T08:30:39;99432.13;;;26.28;54.57
53011;BME280;42803;55.762;38.084;2023-05-24T08:33:08;99428.88;;;26.51;54.84
53011;BME280;42803;55.762;38.084;2023-05-24T08:35:37;99429.06;;;26.66;54.22
53011;BME280;42803;55.762;38.084;2023-05-24T08:38:08;99421.69;;;26.46;53.80
53011;BME280;42803;55.762;38.084;2023-05-24T08:40:39;99422.00;;;26.03;54.30
53011;BME280;42803;55.762;38.084;2023-05-24T08:43:09;99432.00;;;26.17;53.69
53011;BME280;42803;55.762;38.084;2023-05-24T08:45:39;99426.28;;;25.90;54.00
53011;BME280;42803;55.762;38.084;2023-05-24T08:48:10;99428.44;;;25.59;54.85
53011;BME280;42803;55.762;38.084;2023-05-24T08:50:41;99427.66;;;25.65;53.85
53011;BME280;42803;55.762;38.084;2023-05-24T08:53:12;99427.41;;;25.49;54.17
53011;BME280;42803;55.762;38.084;2023-05-24T08:55:44;99434.78;;;25.66;54.00
53011;BME280;42803;55.762;38.084;2023-05-24T08:58:13;99432.25;;;25.75;53.71
53011;BME280;42803;55.762;38.084;2023-05-24T09:00:43;99419.41;;;26.09;52.55
53011;BME280;42803;55.762;38.084;2023-05-24T09:03:13;99429.25;;;26.13;52.25
53011;BME280;42803;55.762;38.084;2023-05-24T09:05:44;99432.63;;;25.98;53.67
53011;BME280;42803;55.762;38.084;2023-05-24T09:08:13;99433.03;;;25.68;53.72
53011;BME280;42803;55.762;38.084;2023-05-24T09:10:47;99426.19;;;25.84;53.85
53011;BME280;42803;55.762;38.084;2023-05-24T09:13:22;99427.66;;;26.25;52.41
53011;BME280;42803;55.762;38.084;2023-05-24T09:15:52;99429.97;;;25.99;51.18
53011;BME280;42803;55.762;38.084;2023-05-24T09:18:22;99425.88;;;26.26;51.74
53011;BME280;42803;55.762;38.084;2023-05-24T09:20:51;99429.41;;;26.25;51.08
53011;BME280;42803;55.762;38.084;2023-05-24T09:23:21;99423.25;;;26.32;50.58
53011;BME280;42803;55.762;38.084;2023-05-24T09:25:53;99416.16;;;26.34;50.66
53011;BME280;42803;55.762;38.084;2023-05-24T09:28:22;99419.53;;;26.18;51.83
53011;BME280;42803;55.762;38.084;2023-05-24T09:30:58;99431.03;;;26.12;50.62
53011;BME280;42803;55.762;38.084;2023-05-24T09:33:31;99418.34;;;26.66;50.30
53011;BME280;42803;55.762;38.084;2023-05-24T09:36:02;99418.47;;;26.75;51.16
53011;BME280;42803;55.762;38.084;2023-05-24T09:38:32;99420.41;;;26.93;50.17
53011;BME280;42803;55.762;38.084;2023-05-24T09:41:05;99428.72;;;27.14;49.90
53011;BME280;42803;55.762;38.084;2023-05-24T09:43:46;99427.13;;;27.36;49.53
53011;BME280;42803;55.762;38.084;2023-05-24T09:46:17;99429.81;;;27.36;49.32
53011;BME280;42803;55.762;38.084;2023-05-24T09:48:58;99431.69;;;27.50;49.04
53011;BME280;42803;55.762;38.084;2023-05-24T09:51:30;99429.03;;;27.54;48.37
53011;BME280;42803;55.762;38.084;2023-05-24T09:54:00;99432.81;;;27.76;48.70
53011;BME280;42803;55.762;38.084;2023-05-24T09:56:32;99432.66;;;27.62;48.25
53011;BME280;42803;55.762;38.084;2023-05-24T09:59:05;99440.41;;;27.24;47.81
53011;BME280;42803;55.762;38.084;2023-05-24T10:01:35;99438.25;;;26.89;49.62
53011;BME280;42803;55.762;38.084;2023-05-24T10:04:05;99437.38;;;26.92;49.75
53011;BME280;42803;55.762;38.084;2023-05-24T10:06:38;99440.19;;;27.03;50.55
53011;BME280;42803;55.762;38.084;2023-05-24T10:09:10;99445.75;;;27.21;49.35
53011;BME280;42803;55.762;38.084;2023-05-24T10:11:42;99438.75;;;27.38;48.26
53011;BME280;42803;55.762;38.084;2023-05-24T10:14:12;99447.13;;;27.77;47.53
53011;BME280;42803;55.762;38.084;2023-05-24T10:16:42;99451.75;;;27.98;47.82
53011;BME280;42803;55.762;38.084;2023-05-24T10:19:11;99446.63;;;28.40;46.95
53011;BME280;42803;55.762;38.084;2023-05-24T10:21:41;99453.88;;;28.58;45.80
53011;BME280;42803;55.762;38.084;2023-05-24T10:24:11;99440.41;;;28.55;46.03
53011;BME280;42803;55.762;38.084;2023-05-24T10:26:43;99447.91;;;27.69;46.44
53011;BME280;42803;55.762;38.084;2023-05-24T10:29:22;99448.38;;;27.16;47.78
53011;BME280;42803;55.762;38.084;2023-05-24T10:31:53;99459.34;;;27.45;48.53
53011;BME280;42803;55.762;38.084;2023-05-24T10:34:23;99456.69;;;27.44;47.41
53011;BME280;42803;55.762;38.084;2023-05-24T10:36:52;99453.75;;;27.19;48.31
53011;BME280;42803;55.762;38.084;2023-05-24T10:39:21;99456.38;;;27.12;48.67
53011;BME280;42803;55.762;38.084;2023-05-24T10:41:54;99459.88;;;27.08;48.65
53011;BME280;42803;55.762;38.084;2023-05-24T10:44:27;99453.53;;;26.98;49.60
53011;BME280;42803;55.762;38.084;2023-05-24T10:47:07;99458.97;;;27.09;49.88
53011;BME280;42803;55.762;38.084;2023-05-24T10:49:38;99455.06;;;26.76;49.96
53011;BME280;42803;55.762;38.084;2023-05-24T10:52:34;99459.22;;;26.49;50.24
53011;BME280;42803;55.762;38.084;2023-05-24T10:55:05;99458.84;;;26.22;50.84
53011;BME280;42803;55.762;38.084;2023-05-24T10:57:38;99460.53;;;26.17;51.73
53011;BME280;42803;55.762;38.084;2023-05-24T11:00:26;99465.19;;;26.30;52.13
53011;BME280;42803;55.762;38.084;2023-05-24T11:02:59;99465.09;;;26.22;52.28
53011;BME280;42803;55.762;38.084;2023-05-24T11:05:33;99474.91;;;26.25;51.79
53011;BME280;42803;55.762;38.084;2023-05-24T11:08:05;99466.03;;;26.26;52.15
53011;BME280;42803;55.762;38.084;2023-05-24T11:10:36;99462.47;;;26.27;51.71
53011;BME280;42803;55.762;38.084;2023-05-24T11:13:08;99471.31;;;26.23;52.37
53011;BME280;42803;55.762;38.084;2023-05-24T11:15:38;99474.91;;;26.25;52.29
53011;BME280;42803;55.762;38.084;2023-05-24T11:18:21;99474.00;;;26.24;52.54
53011;BME280;42803;55.762;38.084;2023-05-24T11:20:51;99469.41;;;26.13;52.85
53011;BME280;42803;55.762;38.084;2023-05-24T11:23:20;99470.72;;;25.80;53.59
53011;BME280;42803;55.762;38.084;2023-05-24T11:25:50;99483.78;;;25.12;55.26
53011;BME280;42803;55.762;38.084;2023-05-24T11:28:23;99478.59;;;25.21;55.28
53011;BME280;42803;55.762;38.084;2023-05-24T11:30:52;99482.72;;;25.53;54.35
53011;BME280;42803;55.762;38.084;2023-05-24T11:33:22;99481.13;;;25.65;54.69
53011;BME280;42803;55.762;38.084;2023-05-24T11:35:53;99480.13;;;25.60;55.22
53011;BME280;42803;55.762;38.084;2023-05-24T11:38:24;99479.03;;;25.45;55.19
53011;BME280;42803;55.762;38.084;2023-05-24T11:40:57;99483.31;;;25.37;55.22
53011;BME280;42803;55.762;38.084;2023-05-24T11:43:29;99480.28;;;25.16;55.29
53011;BME280;42803;55.762;38.084;2023-05-24T11:45:58;99483.00;;;24.75;56.44
53011;BME280;42803;55.762;38.084;2023-05-24T11:48:28;99487.88;;;24.50;57.51
53011;BME280;42803;55.762;38.084;2023-05-24T11:50:58;99490.16;;;24.35;57.75
53011;BME280;42803;55.762;38.084;2023-05-24T11:53:32;99488.97;;;24.21;58.65
53011;BME280;42803;55.762;38.084;2023-05-24T11:56:01;99485.13;;;24.08;59.28
53011;BME280;42803;55.762;38.084;2023-05-24T11:58:41;99485.00;;;24.03;59.51
53011;BME280;42803;55.762;38.084;2023-05-24T12:01:22;99485.50;;;24.25;58.96
53011;BME280;42803;55.762;38.084;2023-05-24T12:03:52;99498.69;;;24.58;58.18
53011;BME280;42803;55.762;38.084;2023-05-24T12:06:22;99490.41;;;24.88;57.56
53011;BME280;42803;55.762;38.084;2023-05-24T12:08:51;99491.66;;;25.07;56.69
53011;BME280;42803;55.762;38.084;2023-05-24T12:11:20;99479.41;;;25.17;56.45
53011;BME280;42803;55.762;38.084;2023-05-24T12:13:50;99482.91;;;25.14;56.49
53011;BME280;42803;55.762;38.084;2023-05-24T12:16:24;99484.66;;;25.12;56.50
53011;BME280;42803;55.762;38.084;2023-05-24T12:18:54;99490.56;;;24.97;56.94
53011;BME280;42803;55.762;38.084;2023-05-24T12:21:40;99484.25;;;24.92;56.57
53011;BME280;42803;55.762;38.084;2023-05-24T12:24:10;99480.72;;;24.95;57.05
53011;BME280;42803;55.762;38.084;2023-05-24T12:26:41;99476.19;;;24.91;57.02
53011;BME280;42803;55.762;38.084;2023-05-24T12:29:12;99473.69;;;24.98;56.71
53011;BME280;42803;55.762;38.084;2023-05-24T12:31:43;99474.19;;;25.23;56.24
53011;BME280;42803;55.762;38.084;2023-05-24T12:34:13;99468.38;;;25.48;56.38
53011;BME280;42803;55.762;38.084;2023-05-24T12:36:43;99472.28;;;25.69;55.79
53011;BME280;42803;55.762;38.084;2023-05-24T12:39:19;99469.94;;;25.87;54.96
53011;BME280;42803;55.762;38.084;2023-05-24T12:41:50;99471.69;;;25.87;54.45
53011;BME280;42803;55.762;38.084;2023-05-24T12:44:26;99470.31;;;25.57;55.74
53011;BME280;42803;55.762;38.084;2023-05-24T12:46:57;99461.63;;;25.72;55.51
53011;BME280;42803;55.762;38.084;2023-05-24T12:49:27;99461.19;;;26.00;54.85
53011;BME280;42803;55.762;38.084;2023-05-24T12:51:56;99450.16;;;26.41;54.33
53011;BME280;42803;55.762;38.084;2023-05-24T12:54:26;99450.44;;;26.60;53.22
53011;BME280;42803;55.762;38.084;2023-05-24T12:56:56;99452.22;;;26.61;52.50
53011;BME280;42803;55.762;38.084;2023-05-24T12:59:28;99444.00;;;26.47;52.61
53011;BME280;42803;55.762;38.084;2023-05-24T13:01:58;99448.44;;;26.45;52.57
53011;BME280;42803;55.762;38.084;2023-05-24T13:04:27;99443.00;;;26.40;52.26
53011;BME280;42803;55.762;38.084;2023-05-24T13:06:58;99455.47;;;26.40;52.55
53011;BME280;42803;55.762;38.084;2023-05-24T13:09:28;99448.28;;;26.36;52.90
53011;BME280;42803;55.762;38.084;2023-05-24T13:11:57;99442.22;;;26.46;52.96
53011;BME280;42803;55.762;38.084;2023-05-24T13:14:28;99459.28;;;26.56;52.89
53011;BME280;42803;55.762;38.084;2023-05-24T13:16:57;99462.88;;;26.58;52.57
53011;BME280;42803;55.762;38.084;2023-05-24T13:19:26;99467.31;;;26.56;52.54
53011;BME280;42803;55.762;38.084;2023-05-24T13:21:56;99463.50;;;26.38;53.22
53011;BME280;42803;55.762;38.084;2023-05-24T13:24:26;99474.34;;;26.46;53.59
53011;BME280;42803;55.762;38.084;2023-05-24T13:26:55;99473.50;;;26.48;53.16